Time;durP1;ratioP1;P1;durP2;ratioP2;P2;SDS_P1;SDS_P2;PMS_P1;PMS_P2;Temp;Humidity;BMP_temperature;BMP_pressure;BME280_temperature;BME280_humidity;BME280_pressure;Samples;Min_cycle;Max_cycle;Signal;HPM_P1;HPM_P2
2021/12/21 00:01:34;;;;;;;;;;;-3.60;99.90;;;;;;4976849;28;19929;-79
2021/12/21 00:03:59;;;;;;;;;;;-3.70;99.90;;;;;;4975989;28;19964;-79
2021/12/21 00:06:24;;;;;;;;;;;-3.70;99.90;;;;;;4976174;28;19922;-79
2021/12/21 00:08:50;;;;;;;;;;;-3.70;99.90;;;;;;4976306;28;19929;-79
2021/12/21 00:11:16;;;;;;;;;;;-3.70;99.90;;;;;;4976393;28;19957;-79
2021/12/21 00:13:56;;;;;;;;;;;-3.70;99.90;;;;;;4992342;28;19922;-79
2021/12/21 00:16:46;;;;;;;;;;;-3.70;99.90;;;;;;4976331;28;19973;-79
2021/12/21 00:21:52;;;;;;;;;;;-3.80;99.90;;;;;;4992667;28;19925;-79
2021/12/21 00:24:21;;;;;;;;;;;-3.80;99.90;;;;;;4976013;28;19928;-79
2021/12/21 00:26:47;;;;;;;;;;;-3.80;99.90;;;;;;4975909;28;19926;-79
2021/12/21 00:29:12;;;;;;;;;;;-3.80;99.90;;;;;;4976132;28;20271;-79
2021/12/21 00:31:38;;;;;;;;;;;-3.90;99.90;;;;;;4975440;28;20067;-79
2021/12/21 00:34:05;;;;;;;;;;;-3.80;99.90;;;;;;4975532;28;19973;-79
2021/12/21 00:36:32;;;;;;;;;;;-3.90;99.90;;;;;;4975868;28;19922;-79
2021/12/21 00:39:00;;;;;;;;;;;-3.90;99.90;;;;;;4975978;28;19929;-79
2021/12/21 00:41:26;;;;;;;;;;;-3.90;99.90;;;;;;4975914;28;19928;-79
2021/12/21 00:43:52;;;;;;;;;;;-3.90;99.90;;;;;;4976026;28;19965;-79
2021/12/21 00:46:17;;;;;;;;;;;-3.90;99.90;;;;;;4991362;28;19964;-80
2021/12/21 00:48:55;;;;;;;;;;;-3.90;99.90;;;;;;4992267;28;19964;-79
2021/12/21 00:51:23;;;;;;;;;;;-3.90;99.90;;;;;;4992109;28;19925;-79
2021/12/21 00:53:48;;;;;;;;;;;-3.90;99.90;;;;;;4975861;28;20287;-79
2021/12/21 00:56:14;;;;;;;;;;;-3.90;99.90;;;;;;4991373;28;20017;-80
2021/12/21 00:58:39;;;;;;;;;;;-4.00;99.90;;;;;;4975093;28;19952;-79
2021/12/21 01:01:06;;;;;;;;;;;-4.00;99.90;;;;;;4992359;28;19922;-80
2021/12/21 01:03:33;;;;;;;;;;;-4.00;99.90;;;;;;4975750;28;20267;-80
2021/12/21 01:08:58;;;;;;;;;;;-4.00;99.90;;;;;;4991618;28;19928;-79
2021/12/21 01:11:30;;;;;;;;;;;-4.10;99.90;;;;;;4991247;28;20004;-79
2021/12/21 01:17:27;;;;;;;;;;;-4.10;99.90;;;;;;4991662;28;20033;-79
2021/12/21 01:19:35;;;;;;;;;;;-4.00;99.90;;;;;;4991550;28;20392;-79
2021/12/21 01:30:31;;;;;;;;;;;-4.10;99.90;;;;;;4980432;28;19929;-79
2021/12/21 01:33:14;;;;;;;;;;;-4.10;99.90;;;;;;4975162;28;20382;-79
2021/12/21 01:35:44;;;;;;;;;;;-4.00;99.90;;;;;;4991485;28;19933;-79
2021/12/21 01:38:31;;;;;;;;;;;-4.00;99.90;;;;;;4974968;28;19925;-79
2021/12/21 01:41:04;;;;;;;;;;;-4.00;99.90;;;;;;4975163;28;19932;-79
2021/12/21 01:43:37;;;;;;;;;;;-3.90;99.90;;;;;;4975010;28;20036;-79
2021/12/21 01:51:31;;;;;;;;;;;-4.00;99.90;;;;;;4992886;28;20390;-79
2021/12/21 01:53:56;;;;;;;;;;;-4.00;99.90;;;;;;4994948;28;19925;-79
2021/12/21 01:56:22;;;;;;;;;;;-4.10;99.90;;;;;;4994828;28;19933;-79
2021/12/21 01:58:48;;;;;;;;;;;-4.10;99.90;;;;;;4995214;28;19922;-79
2021/12/21 02:01:15;;;;;;;;;;;-4.10;99.90;;;;;;4978884;28;19975;-79
2021/12/21 02:03:47;;;;;;;;;;;-4.10;99.90;;;;;;4978986;28;19969;-79
2021/12/21 02:06:14;;;;;;;;;;;-4.10;99.90;;;;;;4978458;28;19922;-79
2021/12/21 02:08:39;;;;;;;;;;;-4.10;99.90;;;;;;4994854;28;19922;-79
2021/12/21 02:11:05;;;;;;;;;;;-4.20;99.90;;;;;;4978623;28;19922;-79
2021/12/21 02:13:35;;;;;;;;;;;-4.20;99.90;;;;;;4978449;28;19922;-79
2021/12/21 02:16:00;;;;;;;;;;;-4.20;99.90;;;;;;4978182;28;19925;-79
2021/12/21 02:21:00;;;;;;;;;;;-4.30;99.90;;;;;;4994546;28;19922;-79
2021/12/21 02:23:34;;;;;;;;;;;-4.30;99.90;;;;;;4978216;28;20416;-79
2021/12/21 02:26:17;;;;;;;;;;;-4.40;99.90;;;;;;4978702;28;19921;-78
2021/12/21 02:31:08;;;;;;;;;;;-4.40;99.90;;;;;;4994443;28;19922;-79
2021/12/21 02:33:34;;;;;;;;;;;-4.40;99.90;;;;;;4977952;28;19968;-79
2021/12/21 02:36:00;;;;;;;;;;;-4.40;99.90;;;;;;4994395;28;20386;-78
2021/12/21 02:38:27;;;;;;;;;;;-4.50;99.90;;;;;;4994459;28;19926;-79
2021/12/21 02:40:53;;;;;;;;;;;-4.50;99.90;;;;;;4978267;28;19929;-79
2021/12/21 02:43:18;;;;;;;;;;;-4.50;99.90;;;;;;4978324;28;19921;-79
2021/12/21 02:45:44;;;;;;;;;;;-4.50;99.90;;;;;;4994020;28;19928;-78
2021/12/21 02:48:10;;;;;;;;;;;-4.50;99.90;;;;;;4978039;28;20327;-78
2021/12/21 02:50:36;;;;;;;;;;;-4.50;99.90;;;;;;4994310;28;19922;-79
2021/12/21 02:53:02;;;;;;;;;;;-4.50;99.90;;;;;;4994281;28;19922;-79
2021/12/21 02:55:27;;;;;;;;;;;-4.50;99.90;;;;;;4977431;28;19988;-78
2021/12/21 02:57:53;;;;;;;;;;;-4.50;99.90;;;;;;4977867;28;19934;-78
2021/12/21 03:00:19;;;;;;;;;;;-4.60;99.90;;;;;;4977967;28;20358;-78
2021/12/21 03:02:45;;;;;;;;;;;-4.60;99.90;;;;;;4977251;28;19968;-78
2021/12/21 03:05:10;;;;;;;;;;;-4.60;99.90;;;;;;4994253;28;19922;-78
2021/12/21 03:10:09;;;;;;;;;;;-4.60;99.90;;;;;;4994315;28;19922;-78
2021/12/21 03:15:30;;;;;;;;;;;-4.60;99.90;;;;;;4956893;28;19926;-78
2021/12/21 03:17:56;;;;;;;;;;;-4.50;99.90;;;;;;4974418;28;20358;-78
2021/12/21 03:20:22;;;;;;;;;;;-4.60;99.90;;;;;;4974628;28;20289;-78
2021/12/21 03:22:47;;;;;;;;;;;-4.60;99.90;;;;;;4960383;28;19969;-78
2021/12/21 03:25:13;;;;;;;;;;;-4.60;99.90;;;;;;4977228;28;19929;-78
2021/12/21 03:27:38;;;;;;;;;;;-4.60;99.90;;;;;;4977365;28;20266;-78
2021/12/21 03:30:06;;;;;;;;;;;-4.60;99.90;;;;;;4977693;28;19922;-78
2021/12/21 03:32:31;;;;;;;;;;;-4.70;99.90;;;;;;4993445;28;19926;-78
2021/12/21 03:34:56;;;;;;;;;;;-4.70;99.90;;;;;;4977258;28;20306;-78
2021/12/21 03:37:22;;;;;;;;;;;-4.70;99.90;;;;;;4976953;28;20007;-78
2021/12/21 03:39:50;;;;;;;;;;;-4.70;99.90;;;;;;4993281;28;19933;-78
2021/12/21 03:42:15;;;;;;;;;;;-4.70;99.90;;;;;;4993072;28;19926;-79
2021/12/21 03:44:41;;;;;;;;;;;-4.80;99.90;;;;;;4977166;28;19922;-78
2021/12/21 03:47:10;;;;;;;;;;;-4.70;99.90;;;;;;4976720;28;20398;-78
2021/12/21 03:52:03;;;;;;;;;;;-4.80;99.90;;;;;;4993097;28;20468;-78
2021/12/21 03:54:29;;;;;;;;;;;-4.80;99.90;;;;;;4992427;28;20020;-78
2021/12/21 03:56:54;;;;;;;;;;;-4.80;99.90;;;;;;4976839;28;20353;-78
2021/12/21 03:59:20;;;;;;;;;;;-4.80;99.90;;;;;;4992928;28;20378;-79
2021/12/21 04:01:46;;;;;;;;;;;-4.80;99.90;;;;;;4976784;28;19922;-79
2021/12/21 04:04:11;;;;;;;;;;;-4.80;99.90;;;;;;4992088;28;19922;-78
2021/12/21 04:06:37;;;;;;;;;;;-4.80;99.90;;;;;;4976411;28;20042;-78
2021/12/21 04:09:04;;;;;;;;;;;-4.80;99.90;;;;;;4992789;28;19921;-78
2021/12/21 04:11:29;;;;;;;;;;;-4.80;99.90;;;;;;4976418;28;19933;-78
2021/12/21 04:13:56;;;;;;;;;;;-4.80;99.90;;;;;;4976235;28;19922;-78
2021/12/21 04:16:21;;;;;;;;;;;-4.80;99.90;;;;;;4976278;28;19973;-78
2021/12/21 04:18:47;;;;;;;;;;;-4.80;99.90;;;;;;4992396;28;19922;-78
2021/12/21 04:21:13;;;;;;;;;;;-4.90;99.90;;;;;;4976099;28;20402;-78
2021/12/21 04:23:39;;;;;;;;;;;-4.90;99.90;;;;;;4976411;28;19989;-78
2021/12/21 04:26:05;;;;;;;;;;;-4.90;99.90;;;;;;4976180;28;19921;-78
2021/12/21 04:28:30;;;;;;;;;;;-4.90;99.90;;;;;;4992859;28;20286;-78
2021/12/21 04:30:56;;;;;;;;;;;-4.90;99.90;;;;;;4976205;28;19932;-78
2021/12/21 04:33:22;;;;;;;;;;;-4.90;99.90;;;;;;4975888;28;19928;-78
2021/12/21 04:35:48;;;;;;;;;;;-5.00;99.90;;;;;;4976158;28;20565;-78
2021/12/21 04:38:26;;;;;;;;;;;-4.90;99.90;;;;;;4976096;28;20019;-78
2021/12/21 04:41:14;;;;;;;;;;;-4.90;99.90;;;;;;4990128;28;20410;-78
2021/12/21 04:43:40;;;;;;;;;;;-5.00;99.90;;;;;;4975812;28;20011;-78
2021/12/21 04:46:05;;;;;;;;;;;-5.00;99.90;;;;;;4976019;28;20040;-78
2021/12/21 04:48:31;;;;;;;;;;;-5.00;99.90;;;;;;4991799;28;19921;-78
2021/12/21 04:50:57;;;;;;;;;;;-5.00;99.90;;;;;;4992217;28;19980;-78
2021/12/21 04:53:22;;;;;;;;;;;-5.00;99.90;;;;;;4975974;28;20009;-78
2021/12/21 04:55:48;;;;;;;;;;;-5.00;99.90;;;;;;4975627;28;19933;-79
2021/12/21 04:58:13;;;;;;;;;;;-5.00;99.90;;;;;;4975833;28;19925;-78
2021/12/21 05:00:39;;;;;;;;;;;-5.00;99.90;;;;;;4991450;28;19972;-79
2021/12/21 05:03:05;;;;;;;;;;;-5.00;99.90;;;;;;4991424;28;19965;-78
2021/12/21 05:05:30;;;;;;;;;;;-5.00;99.90;;;;;;4991985;28;20325;-79
2021/12/21 05:08:08;;;;;;;;;;;-5.00;99.90;;;;;;4991707;28;19926;-79
2021/12/21 05:10:36;;;;;;;;;;;-5.10;99.90;;;;;;4975387;28;19928;-78
2021/12/21 05:13:02;;;;;;;;;;;-5.10;99.90;;;;;;4975407;28;19922;-78
2021/12/21 05:15:27;;;;;;;;;;;-5.00;99.90;;;;;;4975143;28;19949;-78
2021/12/21 05:17:53;;;;;;;;;;;-4.90;99.90;;;;;;4975542;28;19928;-78
2021/12/21 05:20:18;;;;;;;;;;;-4.90;99.90;;;;;;4975603;28;20060;-78
2021/12/21 05:22:44;;;;;;;;;;;-4.90;99.90;;;;;;4992112;28;19922;-78
2021/12/21 05:25:09;;;;;;;;;;;-5.00;99.90;;;;;;4991614;28;19929;-78
2021/12/21 05:27:35;;;;;;;;;;;-5.00;99.90;;;;;;4979065;28;19925;-78
2021/12/21 05:30:00;;;;;;;;;;;-5.00;99.90;;;;;;4995612;28;19922;-78
2021/12/21 05:32:26;;;;;;;;;;;-5.00;99.90;;;;;;4979425;28;19965;-78
2021/12/21 05:34:51;;;;;;;;;;;-5.10;99.90;;;;;;4979270;28;19926;-78
2021/12/21 05:37:17;;;;;;;;;;;-5.10;99.90;;;;;;4979324;28;19921;-78
2021/12/21 05:40:09;;;;;;;;;;;-5.10;99.90;;;;;;4979402;28;19922;-78
2021/12/21 05:42:35;;;;;;;;;;;-5.10;99.90;;;;;;4995743;28;19921;-78
2021/12/21 05:45:01;;;;;;;;;;;-5.10;99.90;;;;;;4979184;28;19929;-78
2021/12/21 05:47:26;;;;;;;;;;;-5.10;99.90;;;;;;4995562;28;20394;-78
2021/12/21 05:49:51;;;;;;;;;;;-5.10;99.90;;;;;;4995175;28;19921;-78
2021/12/21 05:52:17;;;;;;;;;;;-5.10;99.90;;;;;;4979507;28;19965;-78
2021/12/21 05:54:42;;;;;;;;;;;-5.10;99.90;;;;;;4978801;28;19930;-78
2021/12/21 05:57:08;;;;;;;;;;;-5.10;99.90;;;;;;4979102;28;19922;-78
2021/12/21 05:59:33;;;;;;;;;;;-5.20;99.90;;;;;;4979092;28;19922;-78
2021/12/21 06:01:59;;;;;;;;;;;-5.20;99.90;;;;;;4978638;28;19968;-78
2021/12/21 06:04:25;;;;;;;;;;;-5.20;99.90;;;;;;4994997;28;20033;-78
2021/12/21 06:06:51;;;;;;;;;;;-5.10;99.90;;;;;;4978819;28;20350;-78
2021/12/21 06:09:16;;;;;;;;;;;-5.10;99.90;;;;;;4978433;28;19965;-78
2021/12/21 06:11:49;;;;;;;;;;;-5.10;99.90;;;;;;4978740;28;19977;-78
2021/12/21 06:14:36;;;;;;;;;;;-5.10;99.90;;;;;;4978725;28;20382;-78
2021/12/21 06:25:24;;;;;;;;;;;-5.20;99.90;;;;;;4994837;28;20357;-79
2021/12/21 06:27:48;;;;;;;;;;;-5.20;99.90;;;;;;4994503;28;20393;-78
2021/12/21 06:30:14;;;;;;;;;;;-5.20;99.90;;;;;;4994835;28;19922;-78
2021/12/21 06:32:40;;;;;;;;;;;-5.20;99.90;;;;;;4978345;28;19922;-78
2021/12/21 06:35:05;;;;;;;;;;;-5.20;99.90;;;;;;4978746;28;19983;-78
2021/12/21 06:37:31;;;;;;;;;;;-5.30;99.90;;;;;;4978121;28;20321;-78
2021/12/21 06:39:56;;;;;;;;;;;-5.30;99.90;;;;;;4994502;28;19925;-78
2021/12/21 06:42:23;;;;;;;;;;;-5.20;99.90;;;;;;4978337;28;19972;-78
2021/12/21 06:44:54;;;;;;;;;;;-5.10;99.90;;;;;;4978354;28;19922;-78
2021/12/21 06:53:08;;;;;;;;;;;-5.10;99.90;;;;;;4976881;28;20299;-78
2021/12/21 06:55:33;;;;;;;;;;;-5.10;99.90;;;;;;4977142;28;19949;-78
2021/12/21 06:57:58;;;;;;;;;;;-5.00;99.90;;;;;;4983463;28;20381;-78
2021/12/21 07:00:24;;;;;;;;;;;-5.10;99.90;;;;;;4991167;28;20011;-78
2021/12/21 07:02:49;;;;;;;;;;;-5.10;99.90;;;;;;4975941;28;19922;-78
2021/12/21 07:05:15;;;;;;;;;;;-5.10;99.90;;;;;;4977993;28;19975;-78
2021/12/21 07:07:41;;;;;;;;;;;-5.10;99.90;;;;;;4977705;28;20400;-78
2021/12/21 07:10:10;;;;;;;;;;;-5.10;99.90;;;;;;4977885;28;20052;-78
2021/12/21 07:20:14;;;;;;;;;;;-5.20;99.90;;;;;;4998439;28;20019;-81
2021/12/21 07:22:40;;;;;;;;;;;-5.20;99.90;;;;;;4978257;28;19921;-77
2021/12/21 07:25:05;;;;;;;;;;;-5.20;99.90;;;;;;4993911;28;20035;-79
2021/12/21 07:27:31;;;;;;;;;;;-5.20;99.90;;;;;;4974776;28;19926;-79
2021/12/21 07:29:56;;;;;;;;;;;-5.20;99.90;;;;;;4992062;28;20333;-79
2021/12/21 07:32:22;;;;;;;;;;;-5.20;99.90;;;;;;4977245;28;20325;-80
2021/12/21 07:34:47;;;;;;;;;;;-5.20;99.90;;;;;;4977382;28;19932;-79
2021/12/21 07:37:13;;;;;;;;;;;-5.20;99.90;;;;;;4977393;28;19968;-79
2021/12/21 07:39:39;;;;;;;;;;;-5.20;99.90;;;;;;4992647;28;19926;-81
2021/12/21 07:42:05;;;;;;;;;;;-5.20;99.90;;;;;;4975485;28;19921;-79
2021/12/21 07:44:30;;;;;;;;;;;-5.30;99.90;;;;;;4988774;28;19921;-78
2021/12/21 07:46:56;;;;;;;;;;;-5.30;99.90;;;;;;4978178;28;20382;-81
2021/12/21 07:49:21;;;;;;;;;;;-5.30;99.90;;;;;;4968737;28;19929;-80
2021/12/21 07:51:48;;;;;;;;;;;-5.30;99.90;;;;;;4986420;28;19976;-80
2021/12/21 07:54:14;;;;;;;;;;;-5.30;99.90;;;;;;4968671;28;19921;-80
2021/12/21 07:56:40;;;;;;;;;;;-5.30;99.90;;;;;;4972733;28;19965;-80
2021/12/21 07:59:05;;;;;;;;;;;-5.30;99.90;;;;;;4970260;28;19922;-80
2021/12/21 08:01:31;;;;;;;;;;;-5.30;99.90;;;;;;4987850;28;20013;-80
2021/12/21 08:03:57;;;;;;;;;;;-5.30;99.90;;;;;;4969696;28;19925;-80
2021/12/21 08:06:23;;;;;;;;;;;-5.30;99.90;;;;;;4967667;28;20375;-82
2021/12/21 08:08:49;;;;;;;;;;;-5.20;99.90;;;;;;4970798;28;19921;-80
2021/12/21 08:11:27;;;;;;;;;;;-5.30;99.90;;;;;;4969531;28;19988;-84
2021/12/21 08:13:53;;;;;;;;;;;-5.20;99.90;;;;;;4970573;28;20403;-83
2021/12/21 08:16:19;;;;;;;;;;;-5.20;99.90;;;;;;4968186;28;19926;-84
2021/12/21 08:18:45;;;;;;;;;;;-5.20;99.90;;;;;;4970183;28;19926;-79
2021/12/21 08:21:12;;;;;;;;;;;-5.20;99.90;;;;;;4972710;28;19930;-83
2021/12/21 08:23:37;;;;;;;;;;;-5.10;99.90;;;;;;4968966;28;19944;-83
2021/12/21 08:26:04;;;;;;;;;;;-5.20;99.90;;;;;;4974977;28;20382;-82
2021/12/21 08:28:29;;;;;;;;;;;-5.10;99.90;;;;;;4972426;28;19937;-83
2021/12/21 08:30:55;;;;;;;;;;;-5.10;99.90;;;;;;4970900;28;19922;-83
2021/12/21 08:33:20;;;;;;;;;;;-5.10;99.90;;;;;;4984923;28;20004;-82
2021/12/21 08:35:46;;;;;;;;;;;-5.10;99.90;;;;;;4969829;28;19930;-83
2021/12/21 08:38:15;;;;;;;;;;;-5.10;99.90;;;;;;4961178;28;19922;-82
2021/12/21 08:40:40;;;;;;;;;;;-5.00;99.90;;;;;;4984476;28;19922;-82
2021/12/21 08:43:07;;;;;;;;;;;-5.00;99.90;;;;;;4964435;28;19985;-83
2021/12/21 08:45:33;;;;;;;;;;;-4.90;99.90;;;;;;4966042;28;19945;-82
2021/12/21 08:47:59;;;;;;;;;;;-4.90;99.90;;;;;;4985976;28;19925;-83
2021/12/21 08:50:26;;;;;;;;;;;-4.90;99.90;;;;;;4990722;28;22241;-83
2021/12/21 08:52:51;;;;;;;;;;;-4.80;99.90;;;;;;4967279;28;19926;-83
2021/12/21 08:55:20;;;;;;;;;;;-4.70;99.90;;;;;;4974597;28;19933;-83
2021/12/21 08:57:46;;;;;;;;;;;-4.70;99.90;;;;;;4959241;28;19922;-83
2021/12/21 09:00:12;;;;;;;;;;;-4.60;99.90;;;;;;4972138;28;20322;-82
2021/12/21 09:02:38;;;;;;;;;;;-4.60;99.90;;;;;;4970502;28;19929;-83
2021/12/21 09:05:07;;;;;;;;;;;-4.50;99.90;;;;;;4988342;28;19964;-83
2021/12/21 09:07:33;;;;;;;;;;;-4.40;99.90;;;;;;4975626;28;19984;-82
2021/12/21 09:09:58;;;;;;;;;;;-4.40;99.90;;;;;;4970325;28;20006;-82
2021/12/21 09:12:24;;;;;;;;;;;-4.30;99.90;;;;;;4976728;28;19981;-83
2021/12/21 09:14:49;;;;;;;;;;;-4.20;99.90;;;;;;4970554;28;19926;-83
2021/12/21 09:17:15;;;;;;;;;;;-4.20;99.90;;;;;;4975911;28;19922;-82
2021/12/21 09:19:40;;;;;;;;;;;-4.10;99.90;;;;;;4976664;28;19929;-83
2021/12/21 09:22:06;;;;;;;;;;;-4.10;99.90;;;;;;4974288;28;19930;-82
2021/12/21 09:24:31;;;;;;;;;;;-4.00;99.90;;;;;;4976958;28;19922;-82
2021/12/21 09:26:57;;;;;;;;;;;-3.90;99.90;;;;;;4972145;28;19925;-82
2021/12/21 09:29:22;;;;;;;;;;;-3.90;99.90;;;;;;4968260;28;20068;-82
2021/12/21 09:31:48;;;;;;;;;;;-3.90;99.90;;;;;;4976854;28;19922;-83
2021/12/21 09:34:13;;;;;;;;;;;-3.80;99.90;;;;;;4967433;28;20325;-83
2021/12/21 09:36:39;;;;;;;;;;;-3.70;99.90;;;;;;4976755;28;19926;-83
2021/12/21 09:39:04;;;;;;;;;;;-3.60;99.90;;;;;;4969905;28;20393;-82
2021/12/21 09:41:30;;;;;;;;;;;-3.50;99.90;;;;;;4963788;28;19929;-83
2021/12/21 09:43:55;;;;;;;;;;;-3.30;99.90;;;;;;4976017;28;19921;-83
2021/12/21 09:46:21;;;;;;;;;;;-3.10;99.90;;;;;;4968444;28;19928;-83
2021/12/21 09:48:46;;;;;;;;;;;-3.00;99.90;;;;;;4992012;28;19976;-83
2021/12/21 09:51:12;;;;;;;;;;;-2.90;99.90;;;;;;4977175;28;19922;-83
2021/12/21 09:53:37;;;;;;;;;;;-2.80;99.90;;;;;;4977109;28;19929;-83
2021/12/21 09:56:04;;;;;;;;;;;-2.70;99.90;;;;;;4975661;28;19926;-82
2021/12/21 09:58:30;;;;;;;;;;;-2.50;99.90;;;;;;4966803;28;20009;-83
2021/12/21 10:00:56;;;;;;;;;;;-2.40;99.90;;;;;;4969638;28;19961;-83
2021/12/21 10:03:21;;;;;;;;;;;-2.30;99.90;;;;;;4988099;28;19921;-83
2021/12/21 10:05:47;;;;;;;;;;;-2.20;99.90;;;;;;4984786;28;19922;-83
2021/12/21 10:08:19;;;;;;;;;;;-2.20;99.90;;;;;;4973712;28;19922;-85
2021/12/21 10:10:45;;;;;;;;;;;-2.10;99.90;;;;;;4958357;28;19930;-83
2021/12/21 10:13:12;;;;;;;;;;;-2.00;99.90;;;;;;4983539;28;19926;-83
2021/12/21 10:15:40;;;;;;;;;;;-2.00;99.90;;;;;;4980531;28;19948;-83
2021/12/21 10:18:05;;;;;;;;;;;-1.90;99.90;;;;;;4978479;28;19926;-83
2021/12/21 10:20:34;;;;;;;;;;;-1.90;99.90;;;;;;4994549;28;19929;-83
2021/12/21 10:23:00;;;;;;;;;;;-1.80;99.90;;;;;;4978274;28;19968;-83
2021/12/21 10:25:26;;;;;;;;;;;-1.80;99.90;;;;;;4995505;28;19929;-82
2021/12/21 10:27:52;;;;;;;;;;;-1.70;99.90;;;;;;4994694;28;19922;-83
2021/12/21 10:30:17;;;;;;;;;;;-1.70;99.90;;;;;;4985006;28;20342;-82
2021/12/21 10:32:50;;;;;;;;;;;-1.50;99.90;;;;;;4969789;28;20005;-83
2021/12/21 10:35:16;;;;;;;;;;;-1.50;99.90;;;;;;4977288;28;19925;-83
2021/12/21 10:37:42;;;;;;;;;;;-1.50;99.90;;;;;;4979053;28;19928;-83
2021/12/21 10:40:09;;;;;;;;;;;-1.40;99.90;;;;;;4977598;28;19922;-83
2021/12/21 10:42:49;;;;;;;;;;;-1.40;99.90;;;;;;4977387;28;19930;-81
2021/12/21 10:45:14;;;;;;;;;;;-1.30;99.90;;;;;;4980000;28;19972;-83
2021/12/21 10:47:42;;;;;;;;;;;-1.30;99.90;;;;;;4980616;28;19925;-82
2021/12/21 10:50:08;;;;;;;;;;;-1.20;99.90;;;;;;4977369;28;19922;-81
2021/12/21 10:52:33;;;;;;;;;;;-1.10;99.90;;;;;;4967803;28;20028;-79
2021/12/21 10:54:59;;;;;;;;;;;-1.00;99.90;;;;;;4988131;28;20016;-81
2021/12/21 10:57:32;;;;;;;;;;;-0.90;99.90;;;;;;4974399;28;20382;-79
2021/12/21 10:59:59;;;;;;;;;;;-0.80;99.90;;;;;;4992523;28;19930;-78
2021/12/21 11:02:29;;;;;;;;;;;-0.80;99.90;;;;;;4986541;28;19929;-78
2021/12/21 11:05:11;;;;;;;;;;;-0.70;99.90;;;;;;4995302;28;19933;-78
2021/12/21 11:07:47;;;;;;;;;;;-0.60;99.90;;;;;;4967787;28;20164;-78
2021/12/21 11:10:16;;;;;;;;;;;-0.60;99.90;;;;;;4996732;28;19929;-79
2021/12/21 11:12:41;;;;;;;;;;;-0.60;99.90;;;;;;4978185;28;19968;-79
2021/12/21 11:15:08;;;;;;;;;;;-0.50;99.90;;;;;;4990019;28;19968;-79
2021/12/21 11:17:34;;;;;;;;;;;-0.40;99.90;;;;;;4991541;28;19922;-80
2021/12/21 11:19:59;;;;;;;;;;;-0.30;99.90;;;;;;4979800;28;20334;-81
2021/12/21 11:22:28;;;;;;;;;;;0.00;99.90;;;;;;4978686;28;19922;-82
2021/12/21 11:24:54;;;;;;;;;;;0.40;99.90;;;;;;4976891;28;19957;-81
2021/12/21 11:27:20;;;;;;;;;;;0.80;99.90;;;;;;4980304;28;19921;-81
2021/12/21 11:29:47;;;;;;;;;;;1.40;99.90;;;;;;4979180;28;19926;-81
2021/12/21 11:32:12;;;;;;;;;;;2.00;99.90;;;;;;4979665;28;20293;-81
2021/12/21 11:34:57;;;;;;;;;;;2.90;99.90;;;;;;4978339;28;19937;-81
2021/12/21 11:37:23;;;;;;;;;;;3.60;99.90;;;;;;4978466;28;19929;-81
2021/12/21 11:39:49;;;;;;;;;;;4.50;99.90;;;;;;4978154;28;20064;-81
2021/12/21 11:42:20;;;;;;;;;;;5.40;99.90;;;;;;4993766;28;19969;-81
2021/12/21 11:44:52;;;;;;;;;;;6.30;99.90;;;;;;4977548;28;20429;-81
2021/12/21 11:47:23;;;;;;;;;;;7.10;99.90;;;;;;4993713;28;19932;-81
2021/12/21 11:49:50;;;;;;;;;;;7.90;99.90;;;;;;4977961;28;20272;-81
2021/12/21 11:52:20;;;;;;;;;;;8.50;99.90;;;;;;4977554;28;19929;-81
2021/12/21 11:54:50;;;;;;;;;;;8.90;99.90;;;;;;4992971;28;19922;-82
2021/12/21 11:57:18;;;;;;;;;;;9.10;99.90;;;;;;4977249;28;19921;-81
2021/12/21 11:59:44;;;;;;;;;;;9.40;99.90;;;;;;4977694;28;19922;-82
2021/12/21 12:02:10;;;;;;;;;;;9.90;99.90;;;;;;4977562;28;19929;-81
2021/12/21 12:04:35;;;;;;;;;;;10.20;99.90;;;;;;4992989;28;19929;-82
2021/12/21 12:07:12;;;;;;;;;;;10.30;99.90;;;;;;4976925;28;20453;-82
2021/12/21 12:09:37;;;;;;;;;;;10.40;99.90;;;;;;4976563;28;20012;-82
2021/12/21 12:12:04;;;;;;;;;;;10.60;99.90;;;;;;4976717;28;19972;-82
2021/12/21 12:14:30;;;;;;;;;;;10.80;99.90;;;;;;4992387;28;19964;-82
2021/12/21 12:16:57;;;;;;;;;;;10.90;99.90;;;;;;4992821;28;19969;-82
2021/12/21 12:19:34;;;;;;;;;;;10.50;93.60;;;;;;4992297;28;19983;-81
2021/12/21 12:22:00;;;;;;;;;;;9.80;98.40;;;;;;4976110;28;20390;-81
2021/12/21 12:24:31;;;;;;;;;;;9.50;99.90;;;;;;4975970;28;20012;-82
2021/12/21 12:26:58;;;;;;;;;;;9.60;99.90;;;;;;4976167;28;20008;-82
2021/12/21 12:29:25;;;;;;;;;;;9.50;99.90;;;;;;4992803;28;20378;-81
2021/12/21 12:32:04;;;;;;;;;;;9.50;99.90;;;;;;4992652;28;19957;-81
2021/12/21 12:34:32;;;;;;;;;;;9.50;99.90;;;;;;4975697;28;20012;-81
2021/12/21 12:36:58;;;;;;;;;;;9.60;99.90;;;;;;4975946;28;19970;-81
2021/12/21 12:39:34;;;;;;;;;;;9.90;99.90;;;;;;4975858;28;19922;-81
2021/12/21 12:42:02;;;;;;;;;;;10.30;99.90;;;;;;4976257;28;20080;-81
2021/12/21 12:44:27;;;;;;;;;;;10.50;99.90;;;;;;4975525;28;19929;-81
2021/12/21 12:46:55;;;;;;;;;;;10.50;97.60;;;;;;4991830;28;19922;-81
2021/12/21 12:49:21;;;;;;;;;;;10.40;93.60;;;;;;4975795;28;19922;-81
2021/12/21 12:51:46;;;;;;;;;;;9.90;94.60;;;;;;4975830;28;20452;-81
2021/12/21 12:54:12;;;;;;;;;;;9.50;97.40;;;;;;4975495;28;19929;-81
2021/12/21 12:56:41;;;;;;;;;;;9.10;99.10;;;;;;4975712;28;20300;-80
2021/12/21 12:59:07;;;;;;;;;;;8.80;98.00;;;;;;4976249;28;20382;-80
2021/12/21 13:01:38;;;;;;;;;;;8.50;99.90;;;;;;4976115;28;19922;-81
2021/12/21 13:04:09;;;;;;;;;;;8.00;99.90;;;;;;4975928;28;19929;-80
2021/12/21 13:06:35;;;;;;;;;;;7.20;99.90;;;;;;4976466;28;19984;-81
2021/12/21 13:09:03;;;;;;;;;;;6.60;99.90;;;;;;4976223;28;20374;-81
2021/12/21 13:11:30;;;;;;;;;;;6.10;99.90;;;;;;4976527;28;19926;-81
2021/12/21 13:13:57;;;;;;;;;;;5.60;99.90;;;;;;4975750;28;20005;-81
2021/12/21 13:16:25;;;;;;;;;;;5.20;99.90;;;;;;4976043;28;19928;-81
2021/12/21 13:18:52;;;;;;;;;;;4.90;99.90;;;;;;4992514;28;20370;-81
2021/12/21 13:21:35;;;;;;;;;;;4.70;99.90;;;;;;4992237;28;19968;-81
2021/12/21 13:24:08;;;;;;;;;;;4.50;99.90;;;;;;4992210;28;20452;-80
2021/12/21 13:26:35;;;;;;;;;;;4.40;99.90;;;;;;4976592;28;20008;-80
2021/12/21 13:29:01;;;;;;;;;;;4.20;99.90;;;;;;4976684;28;20352;-80
2021/12/21 13:31:27;;;;;;;;;;;4.10;99.90;;;;;;4991959;28;19979;-80
2021/12/21 13:33:57;;;;;;;;;;;4.00;99.90;;;;;;4975304;28;19969;-79
2021/12/21 13:36:49;;;;;;;;;;;3.90;99.90;;;;;;4975857;28;20357;-80
2021/12/21 13:39:15;;;;;;;;;;;3.80;99.90;;;;;;4987414;28;19929;-80
2021/12/21 13:41:45;;;;;;;;;;;3.70;99.90;;;;;;4975967;28;20355;-80
2021/12/21 13:44:10;;;;;;;;;;;3.60;99.90;;;;;;4992021;28;19972;-81
2021/12/21 13:46:35;;;;;;;;;;;3.50;99.90;;;;;;4975724;28;19975;-80
2021/12/21 13:49:01;;;;;;;;;;;3.50;99.90;;;;;;4979767;28;19922;-80
2021/12/21 13:51:26;;;;;;;;;;;3.40;99.90;;;;;;4979493;28;19957;-80
2021/12/21 13:53:54;;;;;;;;;;;3.30;99.90;;;;;;4976650;28;20314;-81
2021/12/21 13:56:21;;;;;;;;;;;3.20;99.90;;;;;;4994137;28;19930;-80
2021/12/21 13:58:46;;;;;;;;;;;3.10;99.90;;;;;;4994928;28;20000;-82
2021/12/21 14:01:16;;;;;;;;;;;3.00;99.90;;;;;;4994268;28;20009;-80
2021/12/21 14:03:46;;;;;;;;;;;2.80;99.90;;;;;;4976858;28;19964;-80
2021/12/21 14:06:14;;;;;;;;;;;2.70;99.90;;;;;;5014741;28;19965;-82
2021/12/21 14:08:43;;;;;;;;;;;2.60;99.90;;;;;;4982132;28;19926;-80
2021/12/21 14:11:09;;;;;;;;;;;2.50;99.90;;;;;;4975433;28;19922;-80
2021/12/21 14:13:36;;;;;;;;;;;2.40;99.90;;;;;;4968167;28;19945;-80
2021/12/21 14:16:17;;;;;;;;;;;2.30;99.90;;;;;;4978779;28;19973;-80
2021/12/21 14:18:45;;;;;;;;;;;2.20;99.90;;;;;;4978977;28;19925;-80
2021/12/21 14:21:31;;;;;;;;;;;2.20;99.90;;;;;;4959736;28;20024;-80
2021/12/21 14:23:59;;;;;;;;;;;2.10;99.90;;;;;;4975238;28;20314;-80
2021/12/21 14:26:27;;;;;;;;;;;2.00;99.90;;;;;;4966454;28;19922;-80
2021/12/21 14:29:00;;;;;;;;;;;1.90;99.90;;;;;;4972140;28;19933;-80
2021/12/21 14:31:27;;;;;;;;;;;1.90;99.90;;;;;;4978521;28;19922;-80
2021/12/21 14:33:55;;;;;;;;;;;1.80;99.90;;;;;;4978255;28;19925;-79
2021/12/21 14:36:21;;;;;;;;;;;1.70;99.90;;;;;;4993656;28;20345;-80
2021/12/21 14:38:53;;;;;;;;;;;1.70;99.90;;;;;;4977225;28;19925;-80
2021/12/21 14:41:19;;;;;;;;;;;1.60;99.90;;;;;;4984613;28;19928;-80
2021/12/21 14:43:45;;;;;;;;;;;1.50;99.90;;;;;;4978215;28;19921;-80
2021/12/21 14:46:17;;;;;;;;;;;1.40;99.90;;;;;;4977382;28;19929;-80
2021/12/21 14:48:47;;;;;;;;;;;1.30;99.90;;;;;;4978128;28;19922;-79
2021/12/21 14:51:13;;;;;;;;;;;1.30;99.90;;;;;;4994397;28;19922;-79
2021/12/21 14:53:47;;;;;;;;;;;1.20;99.90;;;;;;4993612;28;20389;-80
2021/12/21 14:56:13;;;;;;;;;;;1.10;99.90;;;;;;4977515;28;19926;-80
2021/12/21 14:58:39;;;;;;;;;;;1.00;99.90;;;;;;4977874;28;20301;-80
2021/12/21 15:01:05;;;;;;;;;;;0.90;99.90;;;;;;4978093;28;20052;-80
2021/12/21 15:03:40;;;;;;;;;;;0.80;99.90;;;;;;4991796;28;20072;-80
2021/12/21 15:06:06;;;;;;;;;;;0.70;99.90;;;;;;4977639;28;19929;-79
2021/12/21 15:08:33;;;;;;;;;;;0.70;99.90;;;;;;4977704;28;19922;-79
2021/12/21 15:10:59;;;;;;;;;;;0.50;99.90;;;;;;4994018;28;20534;-79
2021/12/21 15:13:24;;;;;;;;;;;0.50;99.90;;;;;;4993785;28;19929;-80
2021/12/21 15:15:50;;;;;;;;;;;0.40;99.90;;;;;;4976962;28;19926;-79
2021/12/21 15:18:16;;;;;;;;;;;0.30;99.90;;;;;;4977554;28;19933;-79
2021/12/21 15:20:42;;;;;;;;;;;0.20;99.90;;;;;;4977322;28;20294;-80